Bahir Dar Airport


Codes: HABD/BJR
Name: Bahir Dar Airport
City: Bahir Dar
Country: Ethiopia
Elevation: 5978 ft.
Wikipedia:

Photos at Bahir Dar Airport


   Photos courtesy of SpottingLog. You can add your own sightings and photos by signing up for a free trial today.



No photos found.

Weather at Bahir Dar Airport


Time (UTC)DescriptionTempratureWindCloud coverageVisibilityPressureHumidity
26-Jun-2024 00:00Moderate Rain17°C2 mph, E100%10000m1015hPa90%
26-Jun-2024 03:00Light Rain17°C4 mph, S100%10000m1014hPa91%
26-Jun-2024 06:00Overcast Clouds19°C4 mph, SE100%10000m1014hPa75%
26-Jun-2024 09:00Overcast Clouds24°C4 mph, NE100%10000m1012hPa56%
26-Jun-2024 12:00Light Rain25°C7 mph, NW100%10000m1009hPa51%
26-Jun-2024 15:00Light Rain21°C4 mph, NW100%9317m1010hPa74%
26-Jun-2024 18:00Moderate Rain19°C2 mph, W100%10000m1014hPa82%
26-Jun-2024 21:00Light Rain18°C7 mph, W100%10000m1014hPa89%
27-Jun-2024 00:00Moderate Rain18°C9 mph, NW100%10000m1013hPa89%
27-Jun-2024 03:00Moderate Rain16°C7 mph, SW100%10000m1014hPa93%
27-Jun-2024 06:00Moderate Rain17°C7 mph, SW100%10000m1016hPa89%
27-Jun-2024 09:00Light Rain22°C2 mph, W100%10000m1013hPa68%
27-Jun-2024 12:00Light Rain22°C7 mph, W99%10000m1011hPa64%
27-Jun-2024 15:00Moderate Rain18°C7 mph, SW100%10000m1013hPa87%
27-Jun-2024 18:00Moderate Rain16°C7 mph, SW100%10000m1017hPa95%
27-Jun-2024 21:00Light Rain16°C4 mph, SW100%10000m1017hPa93%
28-Jun-2024 00:00Light Rain16°C7 mph, SW100%10000m1016hPa93%
28-Jun-2024 03:00Light Rain16°C4 mph, S100%10000m1016hPa89%
28-Jun-2024 06:00Overcast Clouds20°C4 mph, SE100%10000m1016hPa72%
28-Jun-2024 09:00Light Rain24°C2 mph, N94%10000m1013hPa56%
28-Jun-2024 12:00Light Rain25°C7 mph, NW82%10000m1009hPa51%
28-Jun-2024 15:00Heavy Intensity Rain18°C2 mph, SW99%3237m1013hPa89%
28-Jun-2024 18:00Heavy Intensity Rain16°C9 mph, SW100%10000m1017hPa93%
28-Jun-2024 21:00Moderate Rain16°C2 mph, W100%9461m1017hPa92%
29-Jun-2024 00:00Moderate Rain16°C7 mph, SW100%10000m1015hPa92%
29-Jun-2024 03:00Light Rain16°C4 mph, S100%10000m1016hPa92%
29-Jun-2024 06:00Light Rain20°C4 mph, S91%10000m1015hPa73%
29-Jun-2024 09:00Light Rain24°C4 mph, N99%10000m1013hPa58%
29-Jun-2024 12:00Light Rain25°C7 mph, NW100%10000m1010hPa50%
29-Jun-2024 15:00Light Rain20°C7 mph, NW100%10000m1012hPa77%
29-Jun-2024 18:00Moderate Rain17°C4 mph, SW100%10000m1016hPa90%
29-Jun-2024 21:00Light Rain17°C4 mph, SW100%10000m1016hPa88%
30-Jun-2024 00:00Moderate Rain17°C4 mph, W100%10000m1015hPa90%
30-Jun-2024 03:00Light Rain16°C4 mph, SW100%10000m1016hPa90%
30-Jun-2024 06:00Light Rain19°C4 mph, S99%10000m1016hPa76%
30-Jun-2024 09:00Light Rain24°C0 mph, S95%10000m1014hPa59%
30-Jun-2024 12:00Overcast Clouds25°C7 mph, N97%10000m1011hPa50%
30-Jun-2024 15:00Light Rain21°C11 mph, NW99%10000m1012hPa73%
30-Jun-2024 18:00Light Rain19°C4 mph, NW100%10000m1014hPa77%
30-Jun-2024 21:00Moderate Rain19°C7 mph, NW98%10000m1015hPa82%